Time;durP1;ratioP1;P1;durP2;ratioP2;P2;SDS_P1;SDS_P2;PMS_P1;PMS_P2;Temp;Humidity;BMP_temperature;BMP_pressure;BME280_temperature;BME280_humidity;BME280_pressure;Samples;Min_cycle;Max_cycle;Signal;HPM_P1;HPM_P2
2022/03/21 00:02:21;;;;;;;;;;;;;;;14.42;38.42;102760.34;4939955;28;126487;-67
2022/03/21 00:04:48;;;;;;;;;;;;;;;14.40;38.69;102760.59;4922055;28;115289;-65
2022/03/21 00:07:14;;;;;;;;;;;;;;;14.38;38.52;102760.03;4939525;28;98854;-67
2022/03/21 00:09:40;;;;;;;;;;;;;;;14.36;38.55;102748.56;4940342;28;113412;-65
2022/03/21 00:12:06;;;;;;;;;;;;;;;14.34;38.45;102755.28;4939930;28;127270;-67
2022/03/21 00:14:32;;;;;;;;;;;;;;;14.33;38.47;102748.22;4941255;28;98173;-65
2022/03/21 00:16:59;;;;;;;;;;;;;;;14.31;38.80;102753.06;4921990;28;99175;-65
2022/03/21 00:19:26;;;;;;;;;;;;;;;14.29;38.63;102749.75;4940850;28;98583;-65
2022/03/21 00:21:52;;;;;;;;;;;;;;;14.28;38.45;102750.81;4947679;28;98038;-65
2022/03/21 00:24:17;;;;;;;;;;;;;;;14.25;38.89;102746.69;4940403;28;116687;-66
2022/03/21 00:26:43;;;;;;;;;;;;;;;14.24;38.55;102747.75;4921788;28;128342;-66
2022/03/21 00:29:09;;;;;;;;;;;;;;;14.23;38.77;102737.97;4905137;28;128155;-67
2022/03/21 00:31:36;;;;;;;;;;;;;;;14.19;38.69;102734.91;4937222;28;128534;-67
2022/03/21 00:34:02;;;;;;;;;;;;;;;14.17;38.74;102736.19;4924641;28;97902;-67
2022/03/21 00:36:28;;;;;;;;;;;;;;;14.16;38.62;102745.41;4942995;28;127329;-64
2022/03/21 00:38:54;;;;;;;;;;;;;;;14.13;38.88;102737.72;4925559;28;127060;-64
2022/03/21 00:41:22;;;;;;;;;;;;;;;14.10;38.92;102746.34;4908845;28;128148;-67
2022/03/21 00:43:47;;;;;;;;;;;;;;;14.07;38.94;102747.66;4926413;28;97998;-64
2022/03/21 00:46:13;;;;;;;;;;;;;;;14.04;39.02;102747.28;4924106;28;126303;-65
2022/03/21 00:48:39;;;;;;;;;;;;;;;14.02;38.76;102749.41;4942742;28;98575;-67
2022/03/21 00:51:06;;;;;;;;;;;;;;;14.00;38.96;102749.66;4909102;28;98073;-64
2022/03/21 00:53:32;;;;;;;;;;;;;;;13.97;39.03;102745.50;4944113;28;97784;-67
2022/03/21 00:55:58;;;;;;;;;;;;;;;13.95;38.89;102754.94;4942544;28;116100;-64
2022/03/21 00:58:23;;;;;;;;;;;;;;;13.94;39.16;102747.88;4942590;28;128957;-67
2022/03/21 01:00:49;;;;;;;;;;;;;;;13.92;39.09;102747.28;4942389;28;121381;-67
2022/03/21 01:03:15;;;;;;;;;;;;;;;13.90;39.00;102733.94;4925025;28;106508;-66
2022/03/21 01:05:41;;;;;;;;;;;;;;;13.88;39.27;102743.41;4942666;28;119139;-65
2022/03/21 01:08:07;;;;;;;;;;;;;;;13.85;39.26;102744.69;4925228;28;111902;-64
2022/03/21 01:10:33;;;;;;;;;;;;;;;13.84;39.36;102739.50;4923479;28;125679;-67
2022/03/21 01:12:59;;;;;;;;;;;;;;;13.81;39.22;102743.50;4943232;28;97858;-67
2022/03/21 01:15:26;;;;;;;;;;;;;;;13.79;39.13;102740.19;4942669;28;98868;-65
2022/03/21 01:17:52;;;;;;;;;;;;;;;13.78;39.26;102735.00;4924592;28;123270;-65
2022/03/21 01:20:19;;;;;;;;;;;;;;;13.74;39.40;102734.66;4925020;28;98159;-67
2022/03/21 01:22:45;;;;;;;;;;;;;;;13.72;39.10;102734.88;4944016;28;97724;-64
2022/03/21 01:25:11;;;;;;;;;;;;;;;13.70;39.09;102725.34;4943434;28;98693;-67
2022/03/21 01:27:38;;;;;;;;;;;;;;;13.69;39.41;102720.97;4942053;28;127190;-64
2022/03/21 01:30:04;;;;;;;;;;;;;;;13.67;39.43;102721.19;4942714;28;97962;-64
2022/03/21 01:32:32;;;;;;;;;;;;;;;13.64;39.16;102712.72;4924007;28;115741;-64
2022/03/21 01:34:58;;;;;;;;;;;;;;;13.62;39.26;102714.84;4924375;28;98945;-64
2022/03/21 01:37:24;;;;;;;;;;;;;;;13.60;39.43;102716.97;4941963;28;128103;-67
2022/03/21 01:39:50;;;;;;;;;;;;;;;13.58;39.23;102728.03;4943009;28;98371;-67
2022/03/21 01:42:16;;;;;;;;;;;;;;;13.56;39.42;102719.31;4942763;28;113126;-67
2022/03/21 01:44:42;;;;;;;;;;;;;;;13.53;39.41;102714.34;4941001;28;125891;-64
2022/03/21 01:47:09;;;;;;;;;;;;;;;13.51;39.53;102728.13;4943112;28;101092;-67
2022/03/21 01:49:35;;;;;;;;;;;;;;;13.49;39.40;102727.53;4942800;28;97933;-64
2022/03/21 01:52:01;;;;;;;;;;;;;;;13.48;39.37;102719.66;4924257;28;112650;-66
2022/03/21 01:57:11;;;;;;;;;;;;;;;13.44;39.49;102721.16;4942165;28;98333;-64
2022/03/21 01:59:37;;;;;;;;;;;;;;;13.43;39.47;102724.94;4924488;28;98208;-67
2022/03/21 02:02:05;;;;;;;;;;;;;;;13.40;39.56;102723.53;4942313;28;100622;-67
2022/03/21 02:04:31;;;;;;;;;;;;;;;13.38;39.47;102716.69;4942753;28;98275;-67
2022/03/21 02:06:57;;;;;;;;;;;;;;;13.37;39.64;102721.28;4907036;28;129966;-67
2022/03/21 02:09:23;;;;;;;;;;;;;;;13.35;39.48;102717.94;4907434;28;127654;-66
2022/03/21 02:11:49;;;;;;;;;;;;;;;13.33;39.45;102711.13;4942295;28;115578;-64
2022/03/21 02:14:15;;;;;;;;;;;;;;;13.31;39.52;102711.34;4923557;28;120475;-64
2022/03/21 02:16:41;;;;;;;;;;;;;;;13.29;39.53;102716.19;4907611;28;106102;-67
2022/03/21 02:19:29;;;;;;;;;;;;;;;13.27;39.64;102707.44;4923732;28;109933;-67
2022/03/21 02:22:04;;;;;;;;;;;;;;;13.25;39.65;102712.28;4941692;28;97739;-67
2022/03/21 02:24:43;;;;;;;;;;;;;;;13.23;39.73;102706.25;4924968;28;98820;-67
2022/03/21 02:27:09;;;;;;;;;;;;;;;13.21;39.47;102709.19;4924285;28;98405;-65
2022/03/21 02:29:35;;;;;;;;;;;;;;;13.21;39.66;102716.50;4908187;28;98018;-64
2022/03/21 02:32:01;;;;;;;;;;;;;;;13.18;39.79;102714.22;4924595;28;97937;-64
2022/03/21 02:34:27;;;;;;;;;;;;;;;13.16;39.48;102727.16;4941153;28;120834;-66
2022/03/21 02:36:54;;;;;;;;;;;;;;;13.14;39.78;102737.41;4942252;28;102128;-64
2022/03/21 02:39:21;;;;;;;;;;;;;;;13.11;39.79;102733.28;4943042;28;97988;-66
2022/03/21 02:41:47;;;;;;;;;;;;;;;13.10;39.38;102733.50;4942374;28;97750;-67
2022/03/21 02:44:13;;;;;;;;;;;;;;;13.07;39.81;102732.09;4934583;28;98239;-67
2022/03/21 02:46:39;;;;;;;;;;;;;;;13.05;39.73;102731.50;4948298;28;128531;-67
2022/03/21 02:49:06;;;;;;;;;;;;;;;13.03;39.81;102730.88;4940685;28;127709;-64
2022/03/21 02:51:32;;;;;;;;;;;;;;;12.99;39.78;102730.50;4942318;28;97858;-64
2022/03/21 02:53:58;;;;;;;;;;;;;;;12.98;39.89;102730.75;4923531;28;98419;-64
2022/03/21 02:56:24;;;;;;;;;;;;;;;12.94;39.59;102716.03;4939124;28;125954;-67
2022/03/21 02:58:50;;;;;;;;;;;;;;;12.93;39.92;102726.03;4941120;28;127693;-64
2022/03/21 03:01:17;;;;;;;;;;;;;;;12.91;39.82;102724.59;4923100;28;97956;-67
2022/03/21 03:03:44;;;;;;;;;;;;;;;12.89;39.63;102715.88;4941639;28;99089;-67
2022/03/21 03:06:10;;;;;;;;;;;;;;;12.87;39.92;102720.69;4942151;28;98970;-67
2022/03/21 03:08:37;;;;;;;;;;;;;;;12.86;39.80;102711.75;4941457;28;127182;-67
2022/03/21 03:11:03;;;;;;;;;;;;;;;12.83;39.96;102706.78;4942395;28;97866;-67
2022/03/21 03:13:29;;;;;;;;;;;;;;;12.81;39.87;102708.06;4906637;28;116589;-64
2022/03/21 03:15:55;;;;;;;;;;;;;;;12.79;39.95;102705.59;4921219;28;111303;-64
2022/03/21 03:18:21;;;;;;;;;;;;;;;12.77;39.88;102705.84;4941805;28;98058;-67
2022/03/21 03:20:49;;;;;;;;;;;;;;;12.74;39.99;102708.16;4941596;28;98078;-67
2022/03/21 03:23:15;;;;;;;;;;;;;;;12.72;39.97;102704.84;4922754;28;98120;-67
2022/03/21 03:25:41;;;;;;;;;;;;;;;12.71;40.10;102705.91;4940826;28;125218;-64
2022/03/21 03:28:07;;;;;;;;;;;;;;;12.69;39.83;102713.41;4940715;28;125035;-64
2022/03/21 03:30:34;;;;;;;;;;;;;;;12.68;40.21;102706.34;4940298;28;98291;-64
2022/03/21 03:33:00;;;;;;;;;;;;;;;12.65;40.04;102706.81;4940891;28;98660;-67
2022/03/21 03:35:26;;;;;;;;;;;;;;;12.64;40.04;102710.56;4921484;28;126700;-64
2022/03/21 03:37:52;;;;;;;;;;;;;;;12.61;39.96;102711.84;4940227;28;127669;-67
2022/03/21 03:40:18;;;;;;;;;;;;;;;12.60;40.06;102706.66;4922770;28;116814;-67
2022/03/21 03:42:44;;;;;;;;;;;;;;;12.60;40.23;102712.09;4922411;28;98665;-64
2022/03/21 03:45:10;;;;;;;;;;;;;;;12.56;40.18;102700.88;4905416;28;125864;-64
2022/03/21 03:47:36;;;;;;;;;;;;;;;12.56;39.98;102713.59;4922942;28;100070;-67
2022/03/21 03:50:02;;;;;;;;;;;;;;;12.54;40.11;102705.72;4940852;28;115621;-64
2022/03/21 03:52:28;;;;;;;;;;;;;;;12.53;39.95;102720.28;4941065;28;98451;-64
2022/03/21 03:54:54;;;;;;;;;;;;;;;12.51;39.94;102717.81;4939583;28;127109;-67
2022/03/21 03:57:20;;;;;;;;;;;;;;;12.49;40.13;102714.47;4940437;28;126807;-64
2022/03/21 03:59:46;;;;;;;;;;;;;;;12.48;40.12;102723.66;4923433;28;97970;-67
2022/03/21 04:02:12;;;;;;;;;;;;;;;12.46;40.04;102714.97;4940765;28;98853;-67
2022/03/21 04:04:38;;;;;;;;;;;;;;;12.44;40.24;102714.34;4939866;28;129377;-64
2022/03/21 04:07:05;;;;;;;;;;;;;;;12.43;40.36;102720.81;4922354;28;98019;-64
2022/03/21 04:09:30;;;;;;;;;;;;;;;12.41;40.04;102717.50;4941560;28;97878;-67
2022/03/21 04:11:57;;;;;;;;;;;;;;;12.40;40.42;102721.25;4939830;28;127686;-67
2022/03/21 04:14:22;;;;;;;;;;;;;;;12.38;40.20;102719.81;4940223;28;98824;-63
2022/03/21 04:16:48;;;;;;;;;;;;;;;12.38;40.37;102725.22;4939967;28;127779;-67
2022/03/21 04:19:14;;;;;;;;;;;;;;;12.34;40.17;102716.75;4941240;28;97807;-63
2022/03/21 04:21:40;;;;;;;;;;;;;;;12.33;40.03;102722.38;4939937;28;127760;-67
2022/03/21 04:24:07;;;;;;;;;;;;;;;12.31;40.19;102735.31;4922611;28;98764;-67
2022/03/21 04:26:33;;;;;;;;;;;;;;;12.28;40.15;102729.28;4940527;28;97705;-67
2022/03/21 04:29:02;;;;;;;;;;;;;;;12.26;40.44;102727.84;4941266;28;97737;-67
2022/03/21 04:31:28;;;;;;;;;;;;;;;12.25;40.12;102726.19;4941028;28;98515;-63
2022/03/21 04:33:54;;;;;;;;;;;;;;;12.22;40.27;102726.63;4941173;28;98500;-63
2022/03/21 04:36:20;;;;;;;;;;;;;;;12.21;40.35;102719.59;4939424;28;121482;-67
2022/03/21 04:38:46;;;;;;;;;;;;;;;12.17;40.20;102716.50;4939918;28;98106;-67
2022/03/21 04:41:12;;;;;;;;;;;;;;;12.16;40.41;102722.16;4940869;28;98568;-67
2022/03/21 04:43:38;;;;;;;;;;;;;;;12.13;40.58;102712.59;4940562;28;112307;-63
2022/03/21 04:46:05;;;;;;;;;;;;;;;12.11;40.40;102719.28;4939305;28;128155;-63
2022/03/21 04:48:31;;;;;;;;;;;;;;;12.09;40.55;102727.59;4940640;28;98139;-63
2022/03/21 04:50:57;;;;;;;;;;;;;;;12.08;40.60;102728.66;4939074;28;122863;-67
2022/03/21 04:53:23;;;;;;;;;;;;;;;12.06;40.10;102729.94;4940272;28;98585;-63
2022/03/21 04:55:49;;;;;;;;;;;;;;;12.04;40.40;102730.97;4938673;28;128684;-67
2022/03/21 04:58:15;;;;;;;;;;;;;;;12.04;40.51;102733.69;4940604;28;115327;-67
2022/03/21 05:00:41;;;;;;;;;;;;;;;12.03;40.59;102731.22;4939396;28;127215;-67
2022/03/21 05:03:09;;;;;;;;;;;;;;;12.02;40.84;102735.78;4940019;28;123398;-63
2022/03/21 05:05:35;;;;;;;;;;;;;;;12.01;40.23;102733.28;4940394;28;98005;-68
2022/03/21 05:08:02;;;;;;;;;;;;;;;12.00;40.54;102737.06;4940336;28;98193;-63
2022/03/21 05:10:28;;;;;;;;;;;;;;;11.99;40.30;102738.94;4940353;28;98658;-63
2022/03/21 05:12:54;;;;;;;;;;;;;;;11.99;40.44;102746.22;4939417;28;125006;-63
2022/03/21 05:15:20;;;;;;;;;;;;;;;12.01;40.42;102746.81;4938993;28;127481;-65
2022/03/21 05:17:46;;;;;;;;;;;;;;;12.01;40.58;102736.81;4918365;28;113942;-67
2022/03/21 05:20:15;;;;;;;;;;;;;;;12.02;40.52;102749.31;4940539;28;125480;-68
2022/03/21 05:22:42;;;;;;;;;;;;;;;12.02;40.42;102746.59;4942220;28;98780;-63
2022/03/21 05:36:08;;;;;;;;;;;;;;;12.13;40.71;102742.31;4939067;28;97970;-64
2022/03/21 05:38:34;;;;;;;;;;;;;;;12.16;40.26;102746.47;4930680;28;98372;-63
2022/03/21 05:41:00;;;;;;;;;;;;;;;12.18;40.81;102744.34;4938257;28;129021;-64
2022/03/21 05:43:32;;;;;;;;;;;;;;;12.19;40.49;102746.84;4943094;28;118420;-65
2022/03/21 05:46:01;;;;;;;;;;;;;;;12.25;40.79;102753.25;4939425;28;119605;-63
2022/03/21 05:51:15;;;;;;;;;;;;;;;12.32;40.51;102745.06;4938539;28;98363;-68
2022/03/21 05:53:42;;;;;;;;;;;;;;;12.36;40.61;102755.22;4939574;28;108683;-67
2022/03/21 05:56:08;;;;;;;;;;;;;;;12.40;40.87;102744.78;4937085;28;98494;-68
2022/03/21 05:58:33;;;;;;;;;;;;;;;12.44;41.04;102754.91;4942654;28;97925;-68
2022/03/21 06:00:59;;;;;;;;;;;;;;;12.49;40.84;102746.94;4941242;28;127846;-68
2022/03/21 06:03:25;;;;;;;;;;;;;;;12.54;40.90;102746.28;4942830;28;127888;-67
2022/03/21 06:05:52;;;;;;;;;;;;;;;12.59;40.99;102753.72;4942708;28;98170;-64
2022/03/21 06:08:20;;;;;;;;;;;;;;;12.63;40.58;102753.03;4944029;28;98087;-64
2022/03/21 06:10:46;;;;;;;;;;;;;;;12.68;40.99;102753.19;4942509;28;98473;-67
2022/03/21 06:13:13;;;;;;;;;;;;;;;12.74;40.89;102763.13;4942850;28;99200;-63
2022/03/21 06:15:40;;;;;;;;;;;;;;;12.80;40.85;102763.25;4923824;28;98417;-64
2022/03/21 06:18:09;;;;;;;;;;;;;;;12.85;40.96;102761.53;4943656;28;98015;-63
2022/03/21 06:20:36;;;;;;;;;;;;;;;12.92;41.04;102762.25;4942295;28;98355;-64
2022/03/21 06:23:02;;;;;;;;;;;;;;;12.99;41.12;102767.59;4924993;28;98041;-63
2022/03/21 06:25:28;;;;;;;;;;;;;;;13.06;40.85;102762.94;4908336;28;98220;-63
2022/03/21 06:27:54;;;;;;;;;;;;;;;13.13;40.98;102760.97;4924309;28;118521;-67
2022/03/21 06:30:20;;;;;;;;;;;;;;;13.20;41.10;102772.53;4940891;28;116998;-67
2022/03/21 06:32:46;;;;;;;;;;;;;;;13.26;40.96;102765.41;4923442;28;128184;-68
2022/03/21 06:35:11;;;;;;;;;;;;;;;13.36;41.11;102768.38;4942318;28;105336;-67
2022/03/21 06:37:38;;;;;;;;;;;;;;;13.43;41.11;102770.97;4942765;28;97849;-67
2022/03/21 06:40:05;;;;;;;;;;;;;;;13.54;40.83;102769.38;4907185;28;120987;-63
2022/03/21 06:42:31;;;;;;;;;;;;;;;13.65;41.08;102768.56;4942315;28;114237;-64
2022/03/21 06:44:57;;;;;;;;;;;;;;;13.74;41.26;102772.59;4940921;28;128173;-63
2022/03/21 06:47:22;;;;;;;;;;;;;;;13.86;41.06;102776.16;4941943;28;117657;-68
2022/03/21 06:49:48;;;;;;;;;;;;;;;14.13;40.94;102773.00;4940988;28;111719;-63
2022/03/21 06:52:18;;;;;;;;;;;;;;;14.21;41.44;102775.34;4940883;28;127505;-68
2022/03/21 06:54:48;;;;;;;;;;;;;;;14.38;41.12;102773.59;4941240;28;98058;-68
2022/03/21 06:57:17;;;;;;;;;;;;;;;14.47;40.91;102780.28;4942516;28;97942;-66
2022/03/21 06:59:47;;;;;;;;;;;;;;;14.52;41.05;102773.34;4941311;28;97965;-64
2022/03/21 07:02:14;;;;;;;;;;;;;;;14.57;41.43;102776.16;4942384;28;98489;-64
2022/03/21 07:04:40;;;;;;;;;;;;;;;14.61;41.55;102770.03;4922918;28;97917;-64
2022/03/21 07:07:06;;;;;;;;;;;;;;;14.70;41.70;102775.94;4941764;28;117539;-67
2022/03/21 07:09:32;;;;;;;;;;;;;;;14.77;41.33;102783.94;4940448;28;129150;-68
2022/03/21 07:11:58;;;;;;;;;;;;;;;14.84;41.64;102782.72;4941893;28;107784;-64
2022/03/21 07:14:24;;;;;;;;;;;;;;;14.92;41.66;102787.78;4940613;28;119396;-64
2022/03/21 07:16:50;;;;;;;;;;;;;;;15.03;41.76;102785.28;4941506;28;118657;-64
2022/03/21 07:19:16;;;;;;;;;;;;;;;15.15;41.74;102788.78;4941425;28;98402;-64
2022/03/21 07:21:42;;;;;;;;;;;;;;;15.25;41.99;102786.28;4939513;28;127856;-69
2022/03/21 07:24:07;;;;;;;;;;;;;;;15.34;41.80;102783.97;4941606;28;97988;-69
2022/03/21 07:26:34;;;;;;;;;;;;;;;15.43;41.90;102786.03;4941046;28;97986;-69
2022/03/21 07:29:00;;;;;;;;;;;;;;;15.54;41.87;102792.50;4941815;28;98685;-69
2022/03/21 07:31:26;;;;;;;;;;;;;;;15.67;41.89;102786.78;4940808;28;121759;-64
2022/03/21 07:33:52;;;;;;;;;;;;;;;15.80;41.82;102787.50;4906182;28;126353;-65
2022/03/21 07:36:18;;;;;;;;;;;;;;;15.95;41.96;102782.31;4940462;28;116722;-68
2022/03/21 07:38:44;;;;;;;;;;;;;;;16.13;41.89;102781.25;4940663;28;127343;-69
2022/03/21 07:41:09;;;;;;;;;;;;;;;16.33;41.71;102776.13;4940255;28;128883;-68
2022/03/21 07:43:36;;;;;;;;;;;;;;;16.56;41.45;102783.25;4905470;28;128120;-68
2022/03/21 07:48:46;;;;;;;;;;;;;;;17.13;41.01;102780.16;4937944;28;98021;-64
2022/03/21 07:51:12;;;;;;;;;;;;;;;17.42;40.88;102786.19;4923194;28;98983;-68
2022/03/21 07:53:38;;;;;;;;;;;;;;;17.76;40.72;102791.41;4921752;28;115722;-65
2022/03/21 07:56:04;;;;;;;;;;;;;;;18.09;40.53;102779.41;4922580;28;97991;-64
2022/03/21 07:58:33;;;;;;;;;;;;;;;18.47;40.33;102777.47;4923198;28;103799;-64
2022/03/21 08:01:00;;;;;;;;;;;;;;;18.91;40.06;102776.31;4922540;28;98350;-69
2022/03/21 08:03:26;;;;;;;;;;;;;;;19.37;39.79;102767.13;4940736;28;97796;-69
2022/03/21 08:05:52;;;;;;;;;;;;;;;19.91;39.35;102767.72;4921695;28;115017;-64
2022/03/21 08:08:20;;;;;;;;;;;;;;;20.54;38.88;102770.88;4940373;28;98240;-64
2022/03/21 08:10:46;;;;;;;;;;;;;;;21.28;38.08;102772.69;4922933;28;98881;-68
2022/03/21 08:13:16;;;;;;;;;;;;;;;22.11;37.43;102773.69;4918548;28;124883;-68
2022/03/21 08:15:44;;;;;;;;;;;;;;;23.00;36.79;102779.53;4931364;28;97854;-62
2022/03/21 08:18:11;;;;;;;;;;;;;;;23.86;35.97;102784.03;4921754;28;100864;-69
2022/03/21 08:20:39;;;;;;;;;;;;;;;24.73;35.34;102775.72;4940582;28;98811;-70
2022/03/21 08:23:08;;;;;;;;;;;;;;;25.63;34.89;102786.94;4940851;28;97727;-65
2022/03/21 08:25:34;;;;;;;;;;;;;;;26.56;34.30;102782.53;4921867;28;98269;-64
2022/03/21 08:28:00;;;;;;;;;;;;;;;27.40;33.71;102782.19;4923564;28;98741;-65
2022/03/21 08:30:29;;;;;;;;;;;;;;;28.29;32.84;102774.13;4940985;28;98400;-65
2022/03/21 08:32:55;;;;;;;;;;;;;;;29.20;32.02;102779.28;4940613;28;98007;-64
2022/03/21 08:35:21;;;;;;;;;;;;;;;30.07;31.45;102782.84;4921146;28;117384;-64
2022/03/21 08:37:47;;;;;;;;;;;;;;;30.82;30.97;102781.72;4940566;28;99258;-64
2022/03/21 08:40:13;;;;;;;;;;;;;;;31.45;30.76;102775.59;4918254;28;128356;-64
2022/03/21 08:42:39;;;;;;;;;;;;;;;31.92;30.53;102772.09;4921878;28;100127;-72
2022/03/21 08:45:06;;;;;;;;;;;;;;;32.05;30.74;102764.44;4957267;28;115313;-64
2022/03/21 08:47:32;;;;;;;;;;;;;;;31.99;30.94;102761.94;4959528;28;126916;-64
2022/03/21 08:49:58;;;;;;;;;;;;;;;31.85;31.43;102755.19;4938858;28;99043;-72
2022/03/21 08:52:24;;;;;;;;;;;;;;;31.75;31.59;102756.47;4938609;28;127425;-64
2022/03/21 08:54:50;;;;;;;;;;;;;;;31.72;31.98;102754.44;4940882;28;118395;-71
2022/03/21 08:57:16;;;;;;;;;;;;;;;31.67;32.01;102754.69;4943450;28;98731;-65
2022/03/21 08:59:42;;;;;;;;;;;;;;;31.64;32.27;102750.66;4943315;28;100465;-66
2022/03/21 09:02:13;;;;;;;;;;;;;;;31.65;32.41;102745.88;4923440;28;97977;-67
2022/03/21 09:04:39;;;;;;;;;;;;;;;31.67;32.58;102744.34;4931510;28;97871;-73
2022/03/21 09:07:05;;;;;;;;;;;;;;;31.73;32.26;102733.75;4943239;28;98149;-65
2022/03/21 09:09:31;;;;;;;;;;;;;;;31.81;32.17;102732.75;4924858;28;108465;-72
2022/03/21 09:11:57;;;;;;;;;;;;;;;31.90;32.05;102743.75;4921326;28;101315;-73
2022/03/21 09:14:23;;;;;;;;;;;;;;;31.97;32.14;102747.53;4936302;28;114744;-73
2022/03/21 09:16:50;;;;;;;;;;;;;;;32.12;31.93;102736.75;4924400;28;114139;-64
2022/03/21 09:19:16;;;;;;;;;;;;;;;32.25;32.02;102729.88;4905884;28;98426;-72
2022/03/21 09:21:43;;;;;;;;;;;;;;;32.41;32.00;102736.25;4930931;28;98123;-73
2022/03/21 09:24:10;;;;;;;;;;;;;;;32.60;31.76;102726.31;4944643;28;98085;-65
2022/03/21 09:26:36;;;;;;;;;;;;;;;32.80;32.11;102729.94;4943333;28;98423;-73
2022/03/21 09:29:03;;;;;;;;;;;;;;;33.01;31.71;102730.38;4944149;28;97905;-73
2022/03/21 09:31:32;;;;;;;;;;;;;;;33.19;31.90;102720.38;4943169;28;98575;-65
2022/03/21 09:33:58;;;;;;;;;;;;;;;33.40;31.79;102727.53;4924748;28;102541;-73
2022/03/21 09:36:24;;;;;;;;;;;;;;;33.60;31.55;102726.38;4924462;28;98206;-65
2022/03/21 09:38:50;;;;;;;;;;;;;;;33.81;31.26;102736.31;4923873;28;128300;-73
2022/03/21 09:41:22;;;;;;;;;;;;;;;33.99;31.41;102726.22;4923856;28;113695;-73
2022/03/21 09:43:55;;;;;;;;;;;;;;;34.19;31.54;102721.34;4943797;28;97732;-65
2022/03/21 09:46:21;;;;;;;;;;;;;;;34.41;31.00;102717.69;4941779;28;117971;-73
2022/03/21 09:48:53;;;;;;;;;;;;;;;34.63;31.16;102718.81;4942963;28;97967;-65
2022/03/21 09:51:26;;;;;;;;;;;;;;;34.88;30.93;102712.72;4941462;28;127471;-65
2022/03/21 09:53:52;;;;;;;;;;;;;;;35.13;30.83;102707.41;4944077;28;98012;-65
2022/03/21 09:56:18;;;;;;;;;;;;;;;35.37;30.50;102718.09;4942168;28;98076;-65
2022/03/21 09:58:44;;;;;;;;;;;;;;;35.61;30.24;102722.34;4921046;28;123752;-73
2022/03/21 10:01:13;;;;;;;;;;;;;;;35.86;29.84;102694.50;4935666;28;98012;-66
2022/03/21 10:03:39;;;;;;;;;;;;;;;36.16;29.90;102707.56;4942978;28;97860;-72
2022/03/21 10:06:35;;;;;;;;;;;;;;;36.48;29.60;102695.75;4941263;28;98894;-72
2022/03/21 10:09:15;;;;;;;;;;;;;;;36.94;29.05;102695.94;4942497;28;98754;-72
2022/03/21 10:11:57;;;;;;;;;;;;;;;37.45;28.70;102692.03;4942766;28;97974;-72
2022/03/21 10:14:32;;;;;;;;;;;;;;;38.04;28.58;102691.59;4942628;28;99213;-73
2022/03/21 10:17:02;;;;;;;;;;;;;;;38.52;27.92;102682.66;4923956;28;99206;-73
2022/03/21 10:19:40;;;;;;;;;;;;;;;38.86;27.48;102684.91;4942143;28;99280;-71
2022/03/21 10:22:08;;;;;;;;;;;;;;;39.19;26.96;102689.16;4922849;28;98634;-73
2022/03/21 10:24:35;;;;;;;;;;;;;;;39.44;27.02;102681.31;4943003;28;98056;-66
2022/03/21 10:27:01;;;;;;;;;;;;;;;39.66;26.93;102676.28;4942058;28;98645;-73
2022/03/21 10:29:27;;;;;;;;;;;;;;;39.85;26.76;102672.09;4941839;28;98631;-66
2022/03/21 10:31:53;;;;;;;;;;;;;;;40.05;26.66;102674.31;4920350;28;97928;-66
2022/03/21 10:34:20;;;;;;;;;;;;;;;40.27;26.25;102675.69;4922627;28;97783;-66
2022/03/21 10:37:06;;;;;;;;;;;;;;;40.47;26.35;102678.66;4922058;28;97763;-65
2022/03/21 10:39:34;;;;;;;;;;;;;;;40.66;26.24;102672.38;4921799;28;99442;-73
2022/03/21 10:42:02;;;;;;;;;;;;;;;40.85;26.03;102659.59;4922900;28;98012;-73
2022/03/21 10:44:28;;;;;;;;;;;;;;;41.08;25.80;102661.72;4921700;28;112569;-72
2022/03/21 10:46:54;;;;;;;;;;;;;;;41.34;25.54;102667.75;4922218;28;109081;-66
2022/03/21 10:49:35;;;;;;;;;;;;;;;41.65;25.40;102669.25;4922670;28;98102;-66
2022/03/21 10:52:02;;;;;;;;;;;;;;;41.99;25.20;102656.91;4922599;28;97672;-72
2022/03/21 10:54:43;;;;;;;;;;;;;;;42.32;24.90;102657.88;4922376;28;98313;-65
2022/03/21 10:57:31;;;;;;;;;;;;;;;42.72;24.56;102654.19;4922592;28;98610;-66
2022/03/21 11:00:20;;;;;;;;;;;;;;;42.88;24.48;102662.75;4921708;28;98025;-64
2022/03/21 11:03:05;;;;;;;;;;;;;;;42.89;23.97;102659.47;4922155;28;98030;-65
2022/03/21 11:05:33;;;;;;;;;;;;;;;43.03;23.94;102654.66;4922123;28;97970;-65
2022/03/21 11:07:59;;;;;;;;;;;;;;;43.18;23.94;102644.59;4920065;28;100707;-65
2022/03/21 11:10:26;;;;;;;;;;;;;;;43.53;23.24;102639.28;4920913;28;109728;-66
2022/03/21 11:12:55;;;;;;;;;;;;;;;44.00;23.33;102642.44;4920119;28;98192;-72
2022/03/21 11:15:21;;;;;;;;;;;;;;;44.48;22.34;102636.97;4921615;28;98011;-72
2022/03/21 11:17:47;;;;;;;;;;;;;;;44.58;22.55;102622.44;4928025;28;126996;-66
2022/03/21 11:20:13;;;;;;;;;;;;;;;44.61;22.66;102620.75;4920738;28;114917;-72
2022/03/21 11:22:40;;;;;;;;;;;;;;;44.50;22.62;102611.75;4920841;28;98032;-71
2022/03/21 11:25:11;;;;;;;;;;;;;;;44.30;22.71;102609.94;4922653;28;98266;-65
2022/03/21 11:28:06;;;;;;;;;;;;;;;44.15;22.92;102603.06;4922555;28;98062;-66
2022/03/21 11:30:55;;;;;;;;;;;;;;;43.99;23.00;102600.31;4916605;28;98609;-65
2022/03/21 11:33:45;;;;;;;;;;;;;;;43.79;23.09;102592.72;4927656;28;99895;-70
2022/03/21 11:36:12;;;;;;;;;;;;;;;43.67;22.81;102589.84;4922394;28;115838;-71
2022/03/21 11:38:45;;;;;;;;;;;;;;;43.58;22.83;102588.44;4940940;28;116853;-66
2022/03/21 11:41:18;;;;;;;;;;;;;;;43.54;22.87;102584.09;4941385;28;97723;-71
2022/03/21 11:43:45;;;;;;;;;;;;;;;43.52;23.38;102586.63;4948484;28;99198;-66
2022/03/21 11:46:27;;;;;;;;;;;;;;;43.41;23.36;102589.72;4961158;28;98296;-66
2022/03/21 11:48:53;;;;;;;;;;;;;;;43.32;22.83;102589.56;4951240;28;98894;-65
2022/03/21 11:51:19;;;;;;;;;;;;;;;43.23;23.13;102580.88;4939298;28;127615;-66
2022/03/21 11:53:49;;;;;;;;;;;;;;;43.11;23.33;102568.22;4942374;28;98205;-72
2022/03/21 11:56:38;;;;;;;;;;;;;;;42.97;23.33;102563.69;4940437;28;98124;-71
2022/03/21 11:59:04;;;;;;;;;;;;;;;42.78;23.29;102571.03;4940790;28;98941;-65
2022/03/21 12:01:30;;;;;;;;;;;;;;;42.60;23.10;102557.31;4939861;28;128147;-66
2022/03/21 12:04:22;;;;;;;;;;;;;;;42.41;23.27;102558.94;4941223;28;97931;-66
2022/03/21 12:06:49;;;;;;;;;;;;;;;42.18;23.17;102554.19;4937747;28;98006;-66
2022/03/21 12:09:15;;;;;;;;;;;;;;;41.90;22.98;102547.13;4941635;28;98540;-65
2022/03/21 12:11:41;;;;;;;;;;;;;;;41.41;22.15;102544.00;4923007;28;98173;-66
2022/03/21 12:14:23;;;;;;;;;;;;;;;40.68;21.00;102540.00;4922519;28;99845;-65
2022/03/21 12:17:11;;;;;;;;;;;;;;;39.83;20.63;102536.28;4922745;28;97973;-71
2022/03/21 12:19:58;;;;;;;;;;;;;;;38.98;19.94;102535.09;4921763;28;98504;-70
2022/03/21 12:22:30;;;;;;;;;;;;;;;38.23;19.92;102527.91;4940831;28;97957;-70
2022/03/21 12:24:56;;;;;;;;;;;;;;;37.63;19.41;102528.13;4940684;28;97830;-65
2022/03/21 12:27:35;;;;;;;;;;;;;;;37.08;19.57;102521.75;4922720;28;113007;-66
2022/03/21 12:30:20;;;;;;;;;;;;;;;36.45;19.26;102526.06;4921574;28;121404;-66
2022/03/21 12:32:50;;;;;;;;;;;;;;;35.74;19.19;102512.53;4941016;28;98175;-65
2022/03/21 12:35:31;;;;;;;;;;;;;;;35.20;18.82;102508.56;4905747;28;104598;-65
2022/03/21 12:38:07;;;;;;;;;;;;;;;34.66;19.31;102510.06;4941358;28;98134;-70
2022/03/21 12:40:35;;;;;;;;;;;;;;;34.10;19.20;102511.81;4939455;28;119549;-65
2022/03/21 12:43:03;;;;;;;;;;;;;;;33.65;18.91;102516.41;4922830;28;98972;-69
2022/03/21 12:45:29;;;;;;;;;;;;;;;33.29;19.09;102500.25;4939560;28;114640;-65
2022/03/21 12:48:04;;;;;;;;;;;;;;;32.94;19.23;102506.91;4940742;28;97864;-65
2022/03/21 12:50:30;;;;;;;;;;;;;;;32.57;18.93;102501.00;4940134;28;98633;-64
2022/03/21 12:52:58;;;;;;;;;;;;;;;32.25;18.91;102498.38;4939062;28;124742;-65
2022/03/21 12:55:24;;;;;;;;;;;;;;;31.90;18.82;102495.66;4940360;28;98313;-65
2022/03/21 12:58:01;;;;;;;;;;;;;;;31.59;19.14;102493.75;4941311;28;97920;-64